Time;durP1;ratioP1;P1;durP2;ratioP2;P2;SDS_P1;SDS_P2;PMS_P1;PMS_P2;Temp;Humidity;BMP_temperature;BMP_pressure;BME280_temperature;BME280_humidity;BME280_pressure;Samples;Min_cycle;Max_cycle;Signal;HPM_P1;HPM_P2
2022/05/01 00:00:15;;;;;;;13.82;10.32;;;6.40;99.90;;;;;;5113253;27;20078;-75
2022/05/01 00:02:41;;;;;;;12.57;10.93;;;6.40;99.90;;;;;;5109579;28;20083;-75
2022/05/01 00:05:07;;;;;;;12.63;9.88;;;6.30;99.90;;;;;;5109366;27;20043;-74
2022/05/01 00:07:33;;;;;;;12.23;10.60;;;6.30;99.90;;;;;;5113118;27;20133;-75
2022/05/01 00:09:58;;;;;;;13.90;10.20;;;6.30;99.90;;;;;;5109169;27;20088;-75
2022/05/01 00:12:24;;;;;;;13.40;10.35;;;6.30;99.90;;;;;;5112460;27;20402;-75
2022/05/01 00:14:50;;;;;;;12.15;10.85;;;6.20;99.90;;;;;;5117552;27;20055;-76
2022/05/01 00:17:15;;;;;;;13.18;10.75;;;6.20;99.90;;;;;;5113671;27;20118;-76
2022/05/01 00:19:41;;;;;;;13.00;10.90;;;6.20;99.90;;;;;;5111853;27;20043;-76
2022/05/01 00:22:06;;;;;;;13.57;10.68;;;7.20;99.90;;;;;;5108163;28;20054;-76
2022/05/01 00:24:32;;;;;;;16.25;11.05;;;6.10;99.90;;;;;;5109550;28;20069;-76
2022/05/01 00:27:00;;;;;;;19.58;11.73;;;7.50;99.90;;;;;;5118448;27;20046;-76
2022/05/01 00:29:26;;;;;;;13.05;10.85;;;6.10;99.90;;;;;;5115863;27;20147;-75
2022/05/01 00:31:51;;;;;;;12.15;10.95;;;6.00;99.90;;;;;;5109921;27;20512;-75
2022/05/01 00:37:02;;;;;;;17.75;12.02;;;6.00;99.90;;;;;;5110949;27;20051;-75
2022/05/01 00:39:28;;;;;;;13.98;12.60;;;6.00;99.90;;;;;;5109615;27;20035;-75
2022/05/01 00:41:53;;;;;;;14.65;12.95;;;5.90;99.90;;;;;;5092619;28;20066;-76
2022/05/01 00:44:21;;;;;;;15.55;13.63;;;5.90;99.90;;;;;;5092046;28;20040;-76
2022/05/01 00:46:49;;;;;;;15.77;13.30;;;5.80;99.90;;;;;;5115145;27;20494;-76
2022/05/01 00:49:18;;;;;;;14.45;12.82;;;5.80;99.90;;;;;;5096493;28;20491;-76
2022/05/01 00:51:47;;;;;;;15.60;12.85;;;5.80;99.90;;;;;;5094567;27;20080;-75
2022/05/01 00:54:14;;;;;;;14.45;12.95;;;5.70;99.90;;;;;;5080900;28;20446;-75
2022/05/01 00:56:43;;;;;;;13.85;12.55;;;7.70;99.90;;;;;;5089325;28;20411;-75
2022/05/01 00:59:10;;;;;;;13.55;11.23;;;5.70;99.90;;;;;;5101346;28;20051;-75
2022/05/01 01:01:36;;;;;;;13.60;12.23;;;5.70;99.90;;;;;;5110436;28;20123;-75
2022/05/01 01:04:02;;;;;;;12.50;11.20;;;5.60;99.90;;;;;;5114667;27;20077;-75
2022/05/01 01:06:29;;;;;;;12.20;10.75;;;5.60;99.90;;;;;;5116413;27;20479;-75
2022/05/01 01:08:55;;;;;;;15.48;11.73;;;5.60;99.90;;;;;;5093221;28;20531;-75
2022/05/01 01:11:21;;;;;;;13.57;11.55;;;5.50;99.90;;;;;;5113658;27;20503;-75
2022/05/01 01:13:47;;;;;;;17.20;11.27;;;5.50;99.90;;;;;;5111407;27;20044;-75
2022/05/01 01:16:13;;;;;;;12.95;10.73;;;5.40;99.90;;;;;;5093291;28;20509;-75
2022/05/01 01:18:39;;;;;;;13.02;10.73;;;5.50;99.90;;;;;;5095059;28;20130;-75
2022/05/01 01:21:09;;;;;;;11.77;10.48;;;5.40;99.90;;;;;;5110032;28;20448;-75
2022/05/01 01:23:41;;;;;;;12.07;10.98;;;5.40;99.90;;;;;;5112411;27;20480;-76
2022/05/01 01:26:08;;;;;;;13.57;10.50;;;5.40;99.90;;;;;;5109032;28;20093;-75
2022/05/01 01:28:41;;;;;;;13.50;11.50;;;5.30;99.90;;;;;;5111035;28;20047;-75
2022/05/01 01:33:55;;;;;;;11.80;10.60;;;6.00;99.90;;;;;;5109007;27;20047;-76
2022/05/01 01:36:22;;;;;;;14.15;10.95;;;5.20;99.90;;;;;;5112950;27;20119;-75
2022/05/01 01:38:49;;;;;;;12.55;10.80;;;6.60;99.90;;;;;;5093299;28;20074;-75
2022/05/01 01:41:20;;;;;;;12.50;11.02;;;5.10;99.90;;;;;;5115405;27;20048;-76
2022/05/01 01:43:45;;;;;;;12.15;10.13;;;5.10;99.90;;;;;;5111403;27;20044;-74
2022/05/01 01:46:11;;;;;;;13.27;10.15;;;5.10;99.90;;;;;;5109187;27;20883;-75
2022/05/01 01:48:37;;;;;;;14.15;11.77;;;5.10;99.90;;;;;;5112970;27;20056;-75
2022/05/01 01:51:04;;;;;;;11.68;10.27;;;5.00;99.90;;;;;;5111480;27;20092;-76
2022/05/01 01:53:33;;;;;;;12.30;11.00;;;5.00;99.90;;;;;;5074833;28;20058;-76
2022/05/01 01:56:01;;;;;;;13.50;10.70;;;5.20;99.90;;;;;;5113659;27;20091;-76
2022/05/01 01:58:28;;;;;;;11.52;10.13;;;5.00;99.90;;;;;;5085606;28;20428;-76
2022/05/01 02:00:56;;;;;;;12.82;10.63;;;4.90;99.90;;;;;;5105580;27;20028;-75
2022/05/01 02:03:22;;;;;;;12.55;10.65;;;4.90;99.90;;;;;;5097740;28;20076;-75
2022/05/01 02:05:48;;;;;;;14.45;11.02;;;4.90;99.90;;;;;;5109554;27;20039;-76
2022/05/01 02:08:15;;;;;;;14.32;10.35;;;4.90;99.90;;;;;;5114792;27;20114;-75
2022/05/01 02:10:40;;;;;;;12.25;10.20;;;6.10;99.90;;;;;;5112388;27;20042;-75
2022/05/01 02:13:07;;;;;;;12.30;10.15;;;4.80;99.90;;;;;;5092973;28;20035;-75
2022/05/01 02:15:35;;;;;;;12.73;10.48;;;5.20;99.90;;;;;;5108408;28;20036;-75
2022/05/01 02:18:01;;;;;;;13.80;11.07;;;4.70;99.90;;;;;;5107269;27;20395;-75
2022/05/01 02:20:28;;;;;;;13.45;11.02;;;4.70;99.90;;;;;;5115349;27;20089;-76
2022/05/01 02:22:54;;;;;;;13.93;11.45;;;4.70;99.90;;;;;;5107389;28;20065;-75
2022/05/01 02:25:23;;;;;;;15.40;11.18;;;4.60;99.90;;;;;;5113305;27;20040;-75
2022/05/01 02:27:49;;;;;;;14.50;10.85;;;4.70;99.90;;;;;;5106913;28;20051;-74
2022/05/01 02:30:16;;;;;;;13.77;11.75;;;4.70;99.90;;;;;;5091760;28;20080;-75
2022/05/01 02:32:41;;;;;;;14.75;11.85;;;4.70;99.90;;;;;;5109492;28;20039;-75
2022/05/01 02:35:08;;;;;;;17.17;12.25;;;4.60;99.90;;;;;;5111084;28;20074;-75
2022/05/01 02:37:34;;;;;;;16.27;12.52;;;4.60;99.90;;;;;;5106791;28;20059;-75
2022/05/01 02:40:00;;;;;;;14.77;12.15;;;4.40;99.90;;;;;;5108447;28;20036;-75
2022/05/01 02:42:26;;;;;;;14.63;12.45;;;4.50;99.90;;;;;;5107484;28;20449;-75
2022/05/01 02:44:51;;;;;;;15.98;12.77;;;4.40;99.90;;;;;;5089677;28;20051;-75
2022/05/01 02:47:17;;;;;;;16.40;12.52;;;4.30;99.90;;;;;;5114523;28;20093;-75
2022/05/01 02:49:42;;;;;;;15.73;12.40;;;4.80;99.90;;;;;;5107180;28;20118;-75
2022/05/01 02:52:09;;;;;;;16.80;12.30;;;4.40;99.90;;;;;;5106076;28;20036;-75
2022/05/01 02:54:35;;;;;;;13.35;11.43;;;4.40;99.90;;;;;;5107391;28;20051;-75
2022/05/01 02:57:01;;;;;;;17.75;12.98;;;4.80;99.90;;;;;;5105863;28;20035;-76
2022/05/01 02:59:27;;;;;;;13.85;12.15;;;4.40;99.90;;;;;;5109905;28;20047;-75
2022/05/01 03:01:55;;;;;;;13.80;12.35;;;4.30;99.90;;;;;;5106580;28;20044;-74
2022/05/01 03:04:21;;;;;;;13.38;10.77;;;6.00;99.90;;;;;;5110369;28;20050;-74
2022/05/01 03:06:47;;;;;;;13.05;10.90;;;4.30;99.90;;;;;;5111777;27;20450;-75
2022/05/01 03:09:13;;;;;;;16.17;12.57;;;4.30;99.90;;;;;;5106635;28;20074;-75
2022/05/01 03:11:39;;;;;;;13.65;11.20;;;4.50;99.90;;;;;;5112435;28;20040;-75
2022/05/01 03:14:05;;;;;;;12.32;10.85;;;4.30;99.90;;;;;;5111251;28;20039;-76
2022/05/01 03:16:30;;;;;;;13.18;11.02;;;4.60;99.90;;;;;;5101699;28;20581;-75
2022/05/01 03:24:25;;;;;;;;;;;4.20;99.90;;;;;;5101441;28;20044;-75
2022/05/01 03:26:51;;;;;;;12.95;10.30;;;4.10;99.90;;;;;;5110908;27;19923;-75
2022/05/01 03:29:18;;;;;;;10.93;9.50;;;6.10;99.90;;;;;;5108718;27;20119;-75
2022/05/01 03:31:46;;;;;;;11.38;9.68;;;4.00;99.90;;;;;;5114932;27;20244;-75
2022/05/01 03:34:13;;;;;;;14.80;8.98;;;4.40;99.90;;;;;;5110932;28;20077;-75
2022/05/01 03:36:39;;;;;;;11.23;8.23;;;4.10;99.90;;;;;;5113976;27;20445;-75
2022/05/01 03:39:05;;;;;;;9.50;8.40;;;4.00;99.90;;;;;;5109628;28;20486;-75
2022/05/01 03:41:31;;;;;;;12.98;8.65;;;3.90;99.90;;;;;;5094046;28;20052;-75
2022/05/01 03:43:57;;;;;;;10.05;9.05;;;3.80;99.90;;;;;;5113841;27;20039;-75
2022/05/01 03:46:23;;;;;;;10.85;9.15;;;3.90;99.90;;;;;;5114679;27;20828;-75
2022/05/01 03:48:50;;;;;;;12.80;9.43;;;3.80;99.90;;;;;;5115746;27;20070;-75
2022/05/01 03:51:16;;;;;;;10.73;8.90;;;3.60;99.90;;;;;;5111087;27;20091;-75
2022/05/01 03:53:41;;;;;;;11.38;10.00;;;3.80;99.90;;;;;;5093415;28;20051;-75
2022/05/01 03:56:07;;;;;;;14.43;10.75;;;3.80;99.90;;;;;;5093060;27;20044;-75
2022/05/01 03:58:33;;;;;;;14.65;11.05;;;3.70;99.90;;;;;;5093852;28;20227;-75
2022/05/01 04:00:58;;;;;;;13.70;11.05;;;3.70;99.90;;;;;;5110381;27;20036;-75
2022/05/01 04:03:25;;;;;;;11.45;10.25;;;3.80;99.90;;;;;;5110121;28;20048;-75
2022/05/01 04:05:51;;;;;;;11.32;10.05;;;3.70;99.90;;;;;;5111528;27;20118;-75
2022/05/01 04:08:17;;;;;;;11.68;10.43;;;3.70;99.90;;;;;;5111050;27;20479;-75
2022/05/01 04:10:44;;;;;;;10.98;9.85;;;3.70;99.90;;;;;;5113699;27;20042;-74
2022/05/01 04:13:11;;;;;;;12.38;10.77;;;3.60;99.90;;;;;;5112880;27;20044;-75
2022/05/01 04:15:37;;;;;;;11.00;9.77;;;3.70;99.90;;;;;;5112341;27;20034;-75
2022/05/01 04:18:08;;;;;;;10.80;8.95;;;3.70;99.90;;;;;;5111775;27;20052;-75
2022/05/01 04:20:37;;;;;;;10.63;9.48;;;3.80;99.90;;;;;;5093456;27;20062;-75
2022/05/01 04:23:04;;;;;;;12.55;9.80;;;3.80;99.90;;;;;;5094404;28;20088;-74
2022/05/01 04:25:30;;;;;;;11.50;10.30;;;3.80;99.90;;;;;;5111754;28;20036;-75
2022/05/01 04:28:13;;;;;;;11.27;9.85;;;4.30;99.90;;;;;;5114712;27;20051;-75
2022/05/01 04:30:39;;;;;;;10.40;9.40;;;4.90;99.90;;;;;;5114544;27;20048;-75
2022/05/01 04:33:08;;;;;;;12.70;9.48;;;3.70;99.90;;;;;;5103101;27;20097;-75
2022/05/01 04:35:34;;;;;;;12.25;9.80;;;3.60;99.90;;;;;;5111004;27;20035;-75
2022/05/01 04:38:02;;;;;;;10.27;9.20;;;2.10;99.90;;;;;;5112189;27;20519;-74
2022/05/01 04:40:34;;;;;;;11.98;9.80;;;4.50;99.90;;;;;;5109217;28;20097;-75
2022/05/01 04:43:12;;;;;;;11.88;8.90;;;3.60;99.90;;;;;;5107925;28;20511;-75
2022/05/01 04:45:40;;;;;;;10.65;9.27;;;3.60;99.90;;;;;;5109842;27;20092;-74
2022/05/01 04:48:07;;;;;;;10.20;9.05;;;3.70;99.90;;;;;;5111036;27;20130;-75
2022/05/01 04:50:34;;;;;;;9.70;8.70;;;3.70;99.90;;;;;;5108791;28;20075;-74
2022/05/01 04:53:01;;;;;;;12.63;10.43;;;3.70;99.90;;;;;;5109114;28;20040;-75
2022/05/01 04:55:27;;;;;;;11.63;10.40;;;3.60;99.90;;;;;;5102566;28;20048;-74
2022/05/01 04:57:53;;;;;;;14.23;10.65;;;3.60;99.90;;;;;;5120195;27;20043;-75
2022/05/01 05:00:19;;;;;;;12.57;11.02;;;3.60;99.90;;;;;;5109506;28;20495;-75
2022/05/01 05:02:48;;;;;;;16.45;12.27;;;3.50;99.90;;;;;;5119548;27;20036;-75
2022/05/01 05:05:14;;;;;;;11.80;10.60;;;3.60;99.90;;;;;;5095373;28;20035;-75
2022/05/01 05:07:40;;;;;;;13.90;10.90;;;3.60;99.90;;;;;;5109626;27;20055;-75
2022/05/01 05:10:08;;;;;;;10.90;9.70;;;3.70;99.90;;;;;;5108458;28;20031;-75
2022/05/01 05:12:35;;;;;;;12.23;9.95;;;3.70;99.90;;;;;;5108952;27;20044;-75
2022/05/01 05:15:02;;;;;;;11.75;10.55;;;3.70;99.90;;;;;;5091649;28;20122;-74
2022/05/01 05:17:31;;;;;;;9.85;8.95;;;3.80;99.90;;;;;;5112840;27;20040;-75
2022/05/01 05:19:58;;;;;;;10.25;9.18;;;3.80;99.90;;;;;;5112132;27;20558;-75
2022/05/01 05:22:24;;;;;;;11.90;9.40;;;3.80;99.90;;;;;;5093597;28;21344;-75
2022/05/01 05:24:49;;;;;;;10.25;9.25;;;3.90;99.90;;;;;;5109369;27;20080;-75
2022/05/01 05:27:17;;;;;;;10.45;9.02;;;5.70;99.90;;;;;;5109686;27;20039;-75
2022/05/01 05:29:42;;;;;;;9.38;8.35;;;4.00;99.90;;;;;;5091465;28;20670;-75
2022/05/01 05:32:08;;;;;;;10.25;8.77;;;5.80;99.90;;;;;;5090756;28;20050;-74
2022/05/01 05:34:34;;;;;;;12.20;8.35;;;4.00;99.90;;;;;;5091947;28;20039;-75
2022/05/01 05:37:00;;;;;;;8.85;7.95;;;4.10;99.90;;;;;;5109339;27;20067;-74
2022/05/01 05:39:25;;;;;;;8.45;7.55;;;4.10;99.90;;;;;;5097104;28;20055;-74
2022/05/01 05:41:51;;;;;;;10.68;9.05;;;4.20;99.90;;;;;;5109900;27;20078;-73
2022/05/01 05:44:17;;;;;;;8.10;7.32;;;4.30;99.90;;;;;;5109509;28;20399;-75
2022/05/01 05:46:42;;;;;;;8.32;7.53;;;4.30;99.90;;;;;;5107831;28;20490;-74
2022/05/01 05:49:08;;;;;;;9.98;9.00;;;4.30;99.90;;;;;;5108051;27;20047;-74
2022/05/01 05:51:33;;;;;;;8.95;7.88;;;4.40;99.90;;;;;;5108131;28;20047;-74
2022/05/01 05:53:59;;;;;;;10.32;8.57;;;4.50;99.90;;;;;;5090034;28;20058;-75
2022/05/01 05:56:25;;;;;;;12.95;11.63;;;4.50;99.90;;;;;;5093818;28;20112;-74
2022/05/01 05:58:50;;;;;;;16.65;14.70;;;4.60;99.90;;;;;;5109537;27;20640;-75
2022/05/01 06:01:16;;;;;;;22.33;15.70;;;4.70;99.90;;;;;;5108627;27;20058;-75
2022/05/01 06:03:42;;;;;;;19.13;14.88;;;4.70;99.90;;;;;;5114373;27;20139;-75
2022/05/01 06:06:08;;;;;;;14.15;10.60;;;4.10;99.90;;;;;;5109614;27;20032;-75
2022/05/01 06:08:38;;;;;;;14.55;11.05;;;4.80;99.90;;;;;;5107342;27;20055;-75
2022/05/01 06:11:04;;;;;;;16.55;13.85;;;4.90;99.90;;;;;;5090710;28;20039;-75
2022/05/01 06:13:30;;;;;;;18.38;14.05;;;5.00;99.90;;;;;;5108448;28;20043;-76
2022/05/01 06:15:55;;;;;;;13.18;11.02;;;5.10;99.90;;;;;;5111670;27;20096;-75
2022/05/01 06:18:21;;;;;;;10.85;9.10;;;5.20;99.90;;;;;;5110509;27;20268;-76
2022/05/01 06:20:47;;;;;;;11.65;8.75;;;5.30;99.90;;;;;;5107639;28;20505;-75
2022/05/01 06:23:13;;;;;;;10.20;9.20;;;5.40;99.90;;;;;;5102388;27;20035;-75
2022/05/01 06:25:43;;;;;;;11.48;10.25;;;5.50;99.90;;;;;;5108986;28;20050;-75
2022/05/01 06:28:11;;;;;;;12.20;9.05;;;5.60;99.90;;;;;;5113651;28;20142;-75
2022/05/01 06:30:45;;;;;;;17.92;9.20;;;5.60;99.90;;;;;;5103838;28;20082;-75
2022/05/01 06:33:16;;;;;;;10.25;9.13;;;5.80;99.90;;;;;;5107907;28;20039;-75
2022/05/01 06:35:43;;;;;;;10.93;8.98;;;5.80;99.90;;;;;;5100759;28;20035;-76
2022/05/01 06:38:09;;;;;;;10.38;9.00;;;5.90;99.90;;;;;;5112801;28;20065;-75
2022/05/01 06:40:38;;;;;;;12.45;9.35;;;6.00;99.90;;;;;;5108091;28;20035;-75
2022/05/01 06:43:05;;;;;;;10.00;9.00;;;6.20;99.90;;;;;;5093535;28;20050;-75
2022/05/01 06:45:31;;;;;;;10.23;9.05;;;6.30;99.90;;;;;;5109634;27;20039;-76
2022/05/01 06:47:57;;;;;;;10.73;9.55;;;6.40;99.90;;;;;;5107948;28;20040;-75
2022/05/01 06:50:22;;;;;;;13.27;10.60;;;6.50;99.90;;;;;;5091965;28;20143;-76
2022/05/01 06:52:48;;;;;;;24.92;15.77;;;6.60;99.90;;;;;;5112014;28;20058;-75
2022/05/01 06:55:16;;;;;;;13.90;10.30;;;6.60;99.90;;;;;;5092170;28;20054;-75
2022/05/01 06:57:41;;;;;;;10.02;9.05;;;6.70;99.90;;;;;;5106905;28;20047;-75
2022/05/01 07:00:07;;;;;;;9.05;7.50;;;6.80;99.90;;;;;;5112585;28;20035;-76
2022/05/01 07:02:33;;;;;;;8.52;7.72;;;6.90;99.90;;;;;;5110808;27;20047;-75
2022/05/01 07:04:59;;;;;;;10.02;8.35;;;7.00;99.90;;;;;;5109914;28;20036;-75
2022/05/01 07:07:24;;;;;;;9.80;8.63;;;7.10;99.90;;;;;;5111470;28;20095;-75
2022/05/01 07:09:50;;;;;;;11.10;7.90;;;7.30;99.90;;;;;;5118217;27;20505;-74
2022/05/01 07:12:16;;;;;;;11.27;8.27;;;7.40;99.90;;;;;;5112681;27;20040;-76
2022/05/01 07:14:43;;;;;;;9.15;7.82;;;7.50;99.90;;;;;;5120155;27;20039;-75
2022/05/01 07:17:09;;;;;;;21.73;12.63;;;7.50;99.90;;;;;;5093162;28;20044;-75
2022/05/01 07:19:35;;;;;;;8.60;7.57;;;7.60;99.90;;;;;;5118928;27;20058;-76
2022/05/01 07:22:01;;;;;;;7.43;6.72;;;7.70;99.90;;;;;;5095218;28;20084;-75
2022/05/01 07:24:26;;;;;;;6.35;5.53;;;7.70;99.90;;;;;;5112235;27;20325;-75
2022/05/01 07:26:52;;;;;;;5.10;4.63;;;7.80;99.90;;;;;;5112239;27;20136;-75
2022/05/01 07:29:18;;;;;;;7.93;5.25;;;7.80;99.90;;;;;;5116939;27;20043;-75
2022/05/01 07:31:43;;;;;;;7.03;5.18;;;7.90;99.90;;;;;;5122064;27;20044;-75
2022/05/01 07:34:10;;;;;;;7.80;5.30;;;7.90;99.90;;;;;;5110614;28;20043;-75
2022/05/01 07:36:36;;;;;;;8.02;5.75;;;8.00;99.90;;;;;;5118468;27;20039;-75
2022/05/01 07:39:02;;;;;;;10.07;5.97;;;8.10;99.90;;;;;;5120224;27;20058;-75
2022/05/01 07:41:27;;;;;;;4.97;4.57;;;8.20;99.90;;;;;;5113823;27;20482;-75
2022/05/01 07:43:55;;;;;;;10.00;6.35;;;8.30;99.90;;;;;;5110141;28;20044;-75
2022/05/01 07:46:21;;;;;;;9.55;6.47;;;8.30;99.90;;;;;;5111526;28;20038;-76
2022/05/01 07:48:47;;;;;;;7.03;5.43;;;8.40;99.90;;;;;;5107206;28;20605;-75
2022/05/01 07:51:15;;;;;;;6.20;5.60;;;8.50;99.90;;;;;;5102251;27;20056;-76
2022/05/01 07:53:41;;;;;;;8.98;5.63;;;8.60;99.90;;;;;;5099640;27;20047;-75
2022/05/01 07:56:07;;;;;;;5.85;5.18;;;8.70;99.90;;;;;;5077801;27;20047;-75
2022/05/01 07:58:33;;;;;;;7.65;5.18;;;8.80;99.90;;;;;;5081204;28;20046;-75
2022/05/01 08:01:01;;;;;;;7.45;5.47;;;8.90;99.90;;;;;;5092225;27;20051;-73
2022/05/01 08:06:12;;;;;;;11.02;7.03;;;9.00;99.90;;;;;;5093388;27;20207;-73
2022/05/01 08:08:38;;;;;;;6.85;4.45;;;9.10;99.90;;;;;;5073741;28;20040;-73
2022/05/01 08:11:05;;;;;;;6.65;4.45;;;9.20;99.90;;;;;;4386032;27;10000706;-72
2022/05/01 08:13:31;;;;;;;8.70;5.00;;;8.30;99.90;;;;;;5096956;27;20048;-74
2022/05/01 08:15:58;;;;;;;5.32;4.65;;;9.30;99.90;;;;;;5074244;28;20052;-73
2022/05/01 08:21:08;;;;;;;4.43;4.03;;;9.30;99.90;;;;;;5091255;28;20047;-72
2022/05/01 08:23:35;;;;;;;9.18;5.82;;;9.30;99.90;;;;;;5078663;28;20056;-73
2022/05/01 08:26:03;;;;;;;4.78;4.30;;;9.30;99.90;;;;;;5094768;27;20044;-73
2022/05/01 08:28:39;;;;;;;4.32;3.85;;;9.30;99.90;;;;;;5092000;27;20098;-73
2022/05/01 08:31:06;;;;;;;7.43;4.43;;;9.40;99.90;;;;;;5092841;27;20039;-73
2022/05/01 08:33:33;;;;;;;5.50;4.50;;;9.50;99.90;;;;;;5093284;28;20524;-74
2022/05/01 08:35:59;;;;;;;7.05;4.82;;;9.50;99.90;;;;;;5092254;27;20111;-73
2022/05/01 08:38:25;;;;;;;13.15;5.18;;;9.60;99.90;;;;;;5094729;27;20114;-74
2022/05/01 08:40:51;;;;;;;6.07;4.53;;;9.60;99.90;;;;;;5093577;28;20472;-73
2022/05/01 08:43:19;;;;;;;7.18;5.25;;;9.70;99.90;;;;;;5094291;27;20442;-72
2022/05/01 08:45:53;;;;;;;6.95;4.68;;;9.70;99.90;;;;;;5078014;28;20480;-73
2022/05/01 08:48:29;;;;;;;7.45;4.55;;;9.80;99.90;;;;;;5093815;27;20040;-74
2022/05/01 08:50:55;;;;;;;5.43;4.53;;;9.90;99.90;;;;;;5106408;27;20054;-74
2022/05/01 08:53:23;;;;;;;6.70;4.50;;;9.90;99.90;;;;;;5111059;27;20039;-73
2022/05/01 08:55:50;;;;;;;5.93;4.68;;;9.90;99.90;;;;;;5113658;27;20058;-74
2022/05/01 08:58:16;;;;;;;6.18;4.57;;;10.50;99.90;;;;;;5108345;27;20047;-73
2022/05/01 09:00:43;;;;;;;4.70;4.30;;;9.90;99.90;;;;;;5113284;27;20047;-73
2022/05/01 09:03:09;;;;;;;6.32;4.07;;;10.00;99.90;;;;;;5108179;27;20039;-74
2022/05/01 09:05:34;;;;;;;9.00;4.72;;;10.10;99.90;;;;;;5107123;27;20055;-73
2022/05/01 09:08:00;;;;;;;9.45;4.13;;;10.20;99.90;;;;;;5108479;27;20558;-73
2022/05/01 09:10:26;;;;;;;8.30;4.35;;;10.30;99.90;;;;;;5107358;27;20128;-77
2022/05/01 09:12:55;;;;;;;10.43;4.35;;;10.30;99.90;;;;;;5098615;27;20051;-73
2022/05/01 09:15:33;;;;;;;11.85;8.10;;;10.50;99.90;;;;;;5095574;27;20047;-73
2022/05/01 09:18:08;;;;;;;20.73;10.35;;;10.50;99.90;;;;;;5089671;28;20067;-73
2022/05/01 09:20:57;;;;;;;11.18;5.03;;;10.60;99.90;;;;;;5100030;28;20039;-73
2022/05/01 09:23:39;;;;;;;12.25;4.88;;;10.70;99.90;;;;;;5107236;28;20060;-72
2022/05/01 09:26:08;;;;;;;5.60;4.47;;;10.80;99.90;;;;;;5099107;28;20241;-75
2022/05/01 09:28:34;;;;;;;5.40;4.47;;;10.90;99.90;;;;;;5107714;28;20118;-76
2022/05/01 09:31:00;;;;;;;4.03;3.38;;;11.00;99.90;;;;;;5105754;28;20035;-73
2022/05/01 09:33:26;;;;;;;4.97;3.83;;;11.00;99.90;;;;;;5107921;28;20461;-73
2022/05/01 09:35:52;;;;;;;6.80;4.20;;;11.00;99.90;;;;;;5105320;28;20524;-73
2022/05/01 09:38:28;;;;;;;5.00;4.45;;;11.00;99.90;;;;;;5104534;28;20043;-73
2022/05/01 09:40:57;;;;;;;5.53;3.90;;;11.00;99.90;;;;;;5089730;28;20052;-73
2022/05/01 09:43:37;;;;;;;5.95;4.13;;;11.00;99.90;;;;;;5087570;28;20043;-73
2022/05/01 09:46:22;;;;;;;4.82;3.72;;;11.20;99.90;;;;;;5086215;28;20450;-73
2022/05/01 09:48:57;;;;;;;5.22;3.83;;;11.30;99.90;;;;;;5104303;28;20066;-73
2022/05/01 09:51:23;;;;;;;5.88;4.00;;;11.30;99.90;;;;;;5106597;28;20055;-75
2022/05/01 09:53:49;;;;;;;3.80;3.40;;;11.40;99.90;;;;;;5105200;28;20522;-73
2022/05/01 09:56:14;;;;;;;4.35;3.90;;;11.60;99.90;;;;;;5107204;28;20036;-73
2022/05/01 09:58:40;;;;;;;5.18;3.85;;;11.70;99.90;;;;;;5095123;28;20051;-73
2022/05/01 10:01:14;;;;;;;7.10;3.50;;;11.80;99.90;;;;;;5104547;28;20036;-73
2022/05/01 10:03:48;;;;;;;8.43;4.30;;;11.80;99.90;;;;;;5114408;27;20053;-73
2022/05/01 10:06:16;;;;;;;6.38;3.92;;;11.90;99.90;;;;;;5107778;28;20112;-74
2022/05/01 10:08:43;;;;;;;7.18;3.83;;;11.90;99.90;;;;;;5091639;27;20093;-73
2022/05/01 10:11:14;;;;;;;9.18;4.18;;;12.00;99.90;;;;;;5114502;27;20122;-72
2022/05/01 10:13:40;;;;;;;6.40;4.07;;;12.00;99.90;;;;;;5107492;28;20043;-73
2022/05/01 10:16:09;;;;;;;5.63;4.28;;;12.00;99.90;;;;;;5107442;28;20032;-73
2022/05/01 10:18:36;;;;;;;6.25;4.13;;;11.90;99.90;;;;;;5114306;27;20088;-72
2022/05/01 10:21:03;;;;;;;6.13;4.40;;;11.90;99.90;;;;;;5108403;27;20122;-73
2022/05/01 10:23:29;;;;;;;5.05;4.50;;;11.90;99.90;;;;;;5110203;27;20050;-72
2022/05/01 10:26:06;;;;;;;4.75;4.03;;;11.80;99.90;;;;;;5108385;28;20027;-73
2022/05/01 10:29:06;;;;;;;7.13;4.15;;;11.90;99.90;;;;;;5105756;27;20035;-72
2022/05/01 10:34:53;;;;;;;5.57;3.95;;;12.00;99.90;;;;;;5107473;27;20127;-74
2022/05/01 10:37:37;;;;;;;7.72;4.53;;;12.00;99.90;;;;;;5101071;28;20044;-74
2022/05/01 10:40:03;;;;;;;8.32;4.95;;;12.10;99.90;;;;;;5108620;28;20487;-75
2022/05/01 10:42:55;;;;;;;5.53;4.13;;;12.10;99.90;;;;;;5107427;28;20052;-75
2022/05/01 10:45:21;;;;;;;5.03;4.10;;;12.10;99.90;;;;;;5104592;28;20052;-75
2022/05/01 10:47:48;;;;;;;6.13;4.47;;;12.00;99.90;;;;;;5108814;28;20070;-75
2022/05/01 10:50:21;;;;;;;5.13;4.50;;;12.00;99.90;;;;;;5108508;28;20047;-74
2022/05/01 10:53:11;;;;;;;5.50;3.72;;;12.10;99.90;;;;;;5108408;28;20048;-75
2022/05/01 10:55:50;;;;;;;5.63;4.68;;;12.10;99.90;;;;;;5108602;28;20044;-74
2022/05/01 10:58:25;;;;;;;4.85;4.18;;;12.20;99.90;;;;;;5107030;28;20056;-75
2022/05/01 11:00:51;;;;;;;5.32;3.92;;;12.40;99.90;;;;;;5090151;28;20035;-75
2022/05/01 11:03:32;;;;;;;5.93;4.20;;;12.50;99.90;;;;;;5089909;28;20050;-74
2022/05/01 11:06:04;;;;;;;6.25;3.67;;;12.60;99.90;;;;;;5108307;28;20039;-75
2022/05/01 11:08:38;;;;;;;4.65;3.70;;;12.60;99.90;;;;;;5099501;28;20482;-75
2022/05/01 11:11:10;;;;;;;5.20;3.88;;;12.50;99.90;;;;;;5113977;28;20088;-75
2022/05/01 11:13:38;;;;;;;7.97;3.90;;;13.60;99.90;;;;;;5104132;28;20039;-74
2022/05/01 11:16:09;;;;;;;4.45;3.80;;;12.50;99.90;;;;;;5073341;28;20054;-74
2022/05/01 11:18:52;;;;;;;3.55;3.20;;;12.60;99.90;;;;;;5097633;28;20498;-73
2022/05/01 11:21:24;;;;;;;9.05;3.22;;;12.80;99.90;;;;;;5109771;28;20032;-73
2022/05/01 11:24:00;;;;;;;3.85;3.15;;;12.90;99.90;;;;;;5107878;28;20044;-73
2022/05/01 11:26:26;;;;;;;6.20;3.70;;;13.10;99.90;;;;;;5107188;28;20089;-73
2022/05/01 11:28:55;;;;;;;10.60;3.75;;;13.10;99.90;;;;;;5108105;28;20124;-74
2022/05/01 11:31:36;;;;;;;7.40;3.40;;;13.70;99.90;;;;;;5106656;28;20042;-74
2022/05/01 11:34:19;;;;;;;5.28;3.15;;;12.90;99.90;;;;;;5106828;28;20472;-74
2022/05/01 11:36:57;;;;;;;7.57;2.97;;;13.00;99.90;;;;;;5089856;28;20048;-75
2022/05/01 11:39:45;;;;;;;10.75;3.63;;;13.20;99.90;;;;;;5099384;28;20043;-74
2022/05/01 11:42:26;;;;;;;7.15;3.08;;;13.50;99.90;;;;;;5106986;28;20044;-74
2022/05/01 11:44:56;;;;;;;7.95;3.20;;;13.90;99.90;;;;;;5106135;28;20054;-76
2022/05/01 11:47:25;;;;;;;9.63;4.15;;;14.20;99.90;;;;;;5107269;28;20063;-74
2022/05/01 11:49:53;;;;;;;6.32;2.80;;;14.40;99.90;;;;;;5108308;28;20052;-74
2022/05/01 11:52:22;;;;;;;11.55;3.20;;;14.60;99.90;;;;;;5103324;28;20395;-73
2022/05/01 11:54:55;;;;;;;60.58;7.15;;;14.80;99.20;;;;;;5110843;28;20054;-73
2022/05/01 12:03:03;;;;;;;3.83;2.65;;;14.70;97.60;;;;;;5110104;28;20075;-73
2022/05/01 12:05:49;;;;;;;270.63;26.98;;;14.80;98.00;;;;;;5109827;28;20047;-73
2022/05/01 12:08:19;;;;;;;14.82;3.45;;;15.00;97.60;;;;;;5110461;28;20039;-74
2022/05/01 12:10:46;;;;;;;56.83;5.38;;;15.10;94.90;;;;;;5110179;28;20045;-73
2022/05/01 12:13:23;;;;;;;7.13;3.00;;;15.00;95.70;;;;;;5109011;28;20966;-72
2022/05/01 12:15:51;;;;;;;10.60;3.63;;;14.80;95.10;;;;;;5093108;28;20049;-74
2022/05/01 12:18:17;;;;;;;4.13;3.20;;;14.90;96.00;;;;;;5093230;28;20047;-73
2022/05/01 12:20:44;;;;;;;8.85;3.20;;;15.10;95.60;;;;;;5109630;28;20043;-73
2022/05/01 12:23:21;;;;;;;7.85;2.97;;;16.10;95.10;;;;;;5110851;28;20467;-72
2022/05/01 12:25:50;;;;;;;13.77;4.40;;;15.30;94.40;;;;;;5110797;28;20384;-74
2022/05/01 12:28:18;;;;;;;4.55;4.07;;;15.50;94.50;;;;;;5092081;28;20051;-74
2022/05/01 12:30:49;;;;;;;5.68;3.92;;;15.70;94.90;;;;;;5110931;28;20111;-74
2022/05/01 12:33:19;;;;;;;12.73;3.00;;;16.20;94.30;;;;;;5108265;28;20031;-73
2022/05/01 12:35:59;;;;;;;24.98;3.78;;;16.60;93.90;;;;;;5110894;28;20119;-74
2022/05/01 12:38:29;;;;;;;108.43;9.05;;;16.70;92.80;;;;;;5101830;28;20476;-74
2022/05/01 12:44:00;;;;;;;4.85;2.78;;;16.60;93.00;;;;;;5110044;28;20051;-74
2022/05/01 12:46:30;;;;;;;8.80;3.28;;;16.80;92.70;;;;;;5110235;28;20482;-73
2022/05/01 12:48:58;;;;;;;7.05;3.33;;;16.80;92.80;;;;;;5109229;28;20490;-72
2022/05/01 12:51:35;;;;;;;4.28;2.47;;;16.80;93.00;;;;;;5104253;28;20094;-73
2022/05/01 12:54:16;;;;;;;2.78;2.58;;;16.80;93.00;;;;;;5091215;28;20043;-73
2022/05/01 12:56:45;;;;;;;4.25;3.15;;;16.90;92.90;;;;;;4754948;27;10000308;-73
2022/05/01 12:59:28;;;;;;;4.78;3.25;;;16.80;92.20;;;;;;5107875;28;20039;-72
2022/05/01 13:01:58;;;;;;;5.32;2.88;;;16.50;92.00;;;;;;5105304;28;20047;-73
2022/05/01 13:04:29;;;;;;;3.72;2.97;;;16.30;92.60;;;;;;5109744;27;20057;-73
2022/05/01 13:06:55;;;;;;;3.28;2.97;;;16.20;92.70;;;;;;5088608;28;20071;-72
2022/05/01 13:09:21;;;;;;;2.70;2.50;;;16.10;92.90;;;;;;5106260;28;20057;-72
2022/05/01 13:12:04;;;;;;;4.95;3.08;;;16.00;92.80;;;;;;5107537;27;20044;-72
2022/05/01 13:14:33;;;;;;;3.90;2.10;;;15.80;92.40;;;;;;5109924;27;20040;-73
2022/05/01 13:17:28;;;;;;;3.20;2.85;;;15.70;92.50;;;;;;5111213;27;20424;-72